Franklin Springs, GA

4:52 PM EDT on August 30, 2014 (GMT -0400)
Carrie Craft Road | Change Station
CLOSE
Current Station
Personal Weather Station
Location: Bowersville, GA
Elevation: 865 ft
Nearby Weather Stations

Elev 865 ft 34.39 °N, 83.03 °W | Updated 2 seconds ago

Overcast
Overcast
79.4 °F
Feels Like 83 °F
N
0.0
Wind Variable Wind from SW
Gusts 3.0 mph

Today
High -- | Low -- °F
--% Chance of Precip.
Yesterday
High -- | Low -- °F
Precip. -- in
7:04 AM 8:01 PM
Waxing Crescent, 24% visible
Pressure 30.14 in
Visibility 10.0 miles
Clouds Scattered Clouds 3300 ft
Mostly Cloudy 4900 ft
Overcast 10000 ft
Heat Index 83 °F
Dew Point 73 °F
Humidity 81%
Rainfall 0.00 in
Snow Depth Not available.
UV 2 out of 12
Pollen 8.70 out of 12
Air Quality Not available.
Flu Activity Not available.
METAR KTOC 302035Z AUTO 15008G15KT 130V200 10SM DZ SCT033 BKN049 OVC100 27/23 A3014 RMK AO2 T02700234

More Conditions Fewer Conditions

Pressure 30.14 in
Visibility 10.0 miles
Clouds Scattered Clouds 3300 ft
Mostly Cloudy 4900 ft
Overcast 10000 ft
Heat Index 83 °F
Dew Point 73 °F
Humidity 81%
Rainfall 0.00 in
Snow Depth Not available.
UV 2 out of 12
Pollen 8.70 out of 12
Air Quality Not available.
Flu Activity Not available.
METAR KTOC 302035Z AUTO 15008G15KT 130V200 10SM DZ SCT033 BKN049 OVC100 27/23 A3014 RMK AO2 T02700234

More Conditions Fewer Conditions

10-Day Weather Forecast

Almanac

Astronomy

Aug. 30, 2014 Rise Set
Actual Time 7:04 AM EDT 8:01 PM EDT
Civil Twilight 6:38 AM EDT 8:27 PM EDT
Nautical Twilight 6:08 AM EDT 8:57 PM EDT
Astronomical Twilight 5:37 AM EDT 9:28 PM EDT
Moon 11:37 AM EDT 10:49 PM EDT
Length of Visible Light 13h 48m
Length of Day
12h 56m
Tomorrow will be 2m 3s shorter.
Waxing Crescent, 24% of the Moon is Illuminated
Today
Waxing Crescent
Sep 2
First Quarter
Sep 8
Full
Sep 15
Last Quarter
Sep 24
New

Today's Extremes

State Highs State Lows

Community

WunderPhotos

Upload Photos

1,748,624 photos uploaded!

WunderBlogs® & News

Nearby

Snow Depth

Station Depth Elevation
No new snow has been reported.

Earthquake Activity

City Distance Mag. Time & Date
No recent earthquake activity has been reported nearby.
Minimum magnitude displayed is 2.5.

Coastal Water Temperatures

Place Temperature
No Stations Reporting

Nearby Weather Stations